| time (UTC) | temp C | wind direction | speed KPH | gust KPH | rain 1hr cm | rain 24hr cm | rain mn cm | humidity % | barometer mb |
| 20260504151013 | 20 | 194 | 0.0 | 3.2 | 0.00 | 0.00 | 0.00 | 43 | 1018.3 |
| 20260504150512 | 20 | 198 | 0.0 | 6.4 | 0.00 | 0.00 | 0.00 | 43 | 1018.2 |
| 20260504141007 | 17 | 200 | 0.0 | 0.0 | 0.00 | 0.00 | 0.00 | 52 | 1018.3 |
| 20260504140507 | 17 | 199 | 0.0 | 1.6 | 0.00 | 0.00 | 0.00 | 53 | 1018.4 |
| 20260504130510 | 12 | 248 | 0.0 | 0.0 | 0.00 | 0.00 | 0.00 | 79 | 1018.5 |
| 20260504110507 | 5 | 248 | 0.0 | 0.0 | 0.00 | 0.00 | 0.00 | 91 | 1018.1 |
| 20260504100510 | 5 | 248 | 0.0 | 0.0 | 0.00 | 0.00 | 0.00 | 90 | 1017.9 |
| 20260504082008 | 6 | 248 | 0.0 | 0.0 | 0.00 | 0.00 | 0.00 | 87 | 1017.8 |
| 20260504081507 | 6 | 248 | 0.0 | 0.0 | 0.00 | 0.00 | 0.00 | 87 | 1017.8 |
| 20260504081002 | 6 | 248 | 0.0 | 0.0 | 0.00 | 0.00 | 0.00 | 87 | 1017.8 |
| 20260504080503 | 6 | 248 | 0.0 | 0.0 | 0.00 | 0.00 | 0.00 | 86 | 1017.9 |
| 20260504050509 | 8 | 248 | 0.0 | 0.0 | 0.00 | 0.00 | 0.00 | 80 | 1018.4 |
| 20260504050017 | 8 | 248 | 0.0 | 0.0 | 0.00 | 0.00 | 0.00 | 80 | 1018.3 |
| 20260504045507 | 8 | 248 | 0.0 | 0.0 | 0.00 | 0.00 | 0.00 | 78 | 1018.3 |
| 20260504045007 | 8 | 248 | 0.0 | 0.0 | 0.00 | 0.00 | 0.00 | 78 | 1018.3 |
| 20260504044520 | 9 | 248 | 0.0 | 0.0 | 0.00 | 0.00 | 0.00 | 78 | 1018.2 |
| 20260504044007 | 9 | 248 | 0.0 | 0.0 | 0.00 | 0.00 | 0.00 | 77 | 1018.2 |
| 20260504043506 | 9 | 248 | 0.0 | 0.0 | 0.00 | 0.00 | 0.00 | 77 | 1018.2 |
| 20260504043006 | 9 | 248 | 0.0 | 0.0 | 0.00 | 0.00 | 0.00 | 76 | 1018.3 |
| 20260504042504 | 9 | 248 | 0.0 | 0.0 | 0.00 | 0.00 | 0.00 | 75 | 1018.3 |
| 20260504042008 | 10 | 248 | 0.0 | 0.0 | 0.00 | 0.00 | 0.00 | 75 | 1018.3 |
| 20260504041514 | 10 | 248 | 0.0 | 0.0 | 0.00 | 0.00 | 0.00 | 75 | 1018.3 |
| 20260504041007 | 10 | 248 | 0.0 | 0.0 | 0.00 | 0.00 | 0.00 | 74 | 1018.4 |
| 20260504040509 | 10 | 248 | 0.0 | 0.0 | 0.00 | 0.00 | 0.00 | 73 | 1018.3 |
| 20260504040024 | 10 | 248 | 0.0 | 0.0 | 0.00 | 0.00 | 0.00 | 73 | 1018.4 |
| 20260504035506 | 10 | 248 | 0.0 | 0.0 | 0.00 | 0.00 | 0.00 | 73 | 1018.4 |
| 20260504035009 | 10 | 248 | 0.0 | 0.0 | 0.00 | 0.00 | 0.00 | 73 | 1018.4 |
| 20260504034519 | 10 | 248 | 0.0 | 0.0 | 0.00 | 0.00 | 0.00 | 73 | 1018.4 |
| 20260504034010 | 10 | 248 | 0.0 | 0.0 | 0.00 | 0.00 | 0.00 | 73 | 1018.3 |
| 20260504033511 | 10 | 248 | 0.0 | 0.0 | 0.00 | 0.00 | 0.00 | 73 | 1018.4 |
| 20260504033021 | 10 | 248 | 0.0 | 0.0 | 0.00 | 0.00 | 0.00 | 73 | 1018.3 |
| 20260504032509 | 10 | 248 | 0.0 | 0.0 | 0.00 | 0.00 | 0.00 | 73 | 1018.3 |
| 20260504032010 | 10 | 248 | 0.0 | 0.0 | 0.00 | 0.00 | 0.00 | 71 | 1018.3 |
| 20260504031521 | 10 | 248 | 0.0 | 0.0 | 0.00 | 0.00 | 0.00 | 71 | 1018.3 |
| 20260504031008 | 10 | 248 | 0.0 | 0.0 | 0.00 | 0.00 | 0.00 | 71 | 1018.4 |
| 20260504030511 | 10 | 248 | 0.0 | 0.0 | 0.00 | 0.00 | 0.00 | 70 | 1018.4 |
| 20260504030015 | 10 | 248 | 0.0 | 0.0 | 0.00 | 0.00 | 0.00 | 70 | 1018.3 |
| 20260504025512 | 11 | 248 | 0.0 | 0.0 | 0.00 | 0.00 | 0.00 | 69 | 1018.3 |
| 20260504025007 | 11 | 248 | 0.0 | 0.0 | 0.00 | 0.00 | 0.00 | 69 | 1018.3 |
| 20260504024518 | 11 | 248 | 0.0 | 0.0 | 0.00 | 0.00 | 0.00 | 68 | 1018.3 |
| 20260504024008 | 11 | 248 | 0.0 | 0.0 | 0.00 | 0.00 | 0.00 | 67 | 1018.3 |
| 20260504023508 | 11 | 248 | 0.0 | 0.0 | 0.00 | 0.00 | 0.00 | 66 | 1018.3 |
| 20260504023026 | 11 | 248 | 0.0 | 0.0 | 0.00 | 0.00 | 0.00 | 67 | 1018.1 |
| 20260504022507 | 11 | 248 | 0.0 | 0.0 | 0.00 | 0.00 | 0.00 | 66 | 1018.1 |
| 20260504022006 | 12 | 248 | 0.0 | 0.0 | 0.00 | 0.00 | 0.00 | 66 | 1018.1 |
| 20260504021524 | 12 | 248 | 0.0 | 0.0 | 0.00 | 0.00 | 0.00 | 64 | 1018.0 |
| 20260504021007 | 12 | 248 | 0.0 | 0.0 | 0.00 | 0.00 | 0.00 | 62 | 1018.0 |
| 20260504020507 | 12 | 248 | 0.0 | 0.0 | 0.00 | 0.00 | 0.00 | 61 | 1017.9 |
| 20260504020026 | 12 | 248 | 0.0 | 0.0 | 0.00 | 0.00 | 0.00 | 61 | 1017.8 |
| 20260504015510 | 12 | 248 | 0.0 | 0.0 | 0.00 | 0.00 | 0.00 | 60 | 1017.8 |
| 20260504015005 | 12 | 248 | 0.0 | 0.0 | 0.00 | 0.00 | 0.00 | 61 | 1017.8 |
| 20260504014517 | 12 | 248 | 0.0 | 0.0 | 0.00 | 0.00 | 0.00 | 61 | 1017.7 |
| 20260504014007 | 12 | 248 | 0.0 | 0.0 | 0.00 | 0.00 | 0.00 | 59 | 1017.7 |
| 20260504013510 | 13 | 248 | 0.0 | 0.0 | 0.00 | 0.00 | 0.00 | 58 | 1017.7 |
| 20260504013021 | 13 | 248 | 0.0 | 0.0 | 0.00 | 0.00 | 0.00 | 58 | 1017.7 |
| 20260504012510 | 13 | 248 | 0.0 | 0.0 | 0.00 | 0.00 | 0.00 | 57 | 1017.6 |
| 20260504012010 | 13 | 248 | 0.0 | 0.0 | 0.00 | 0.00 | 0.00 | 56 | 1017.5 |
| 20260504011525 | 13 | 248 | 0.0 | 0.0 | 0.00 | 0.00 | 0.00 | 55 | 1017.5 |
| 20260504011012 | 14 | 248 | 0.0 | 0.0 | 0.00 | 0.00 | 0.00 | 55 | 1017.5 |
| 20260504010506 | 14 | 248 | 0.0 | 0.0 | 0.00 | 0.00 | 0.00 | 55 | 1017.4 |
| 20260504010026 | 15 | 248 | 0.0 | 0.0 | 0.00 | 0.00 | 0.00 | 53 | 1017.3 |
| 20260504005508 | 15 | 248 | 0.0 | 0.0 | 0.00 | 0.00 | 0.00 | 52 | 1017.2 |
| 20260504005011 | 15 | 248 | 0.0 | 0.0 | 0.00 | 0.00 | 0.00 | 50 | 1017.2 |
| 20260504004524 | 15 | 248 | 0.0 | 0.0 | 0.00 | 0.00 | 0.00 | 49 | 1017.2 |
| 20260504004008 | 16 | 248 | 0.0 | 0.0 | 0.00 | 0.00 | 0.00 | 47 | 1017.2 |
| 20260504003508 | 16 | 248 | 0.0 | 0.0 | 0.00 | 0.00 | 0.00 | 47 | 1017.2 |
| 20260504003015 | 16 | 248 | 0.0 | 0.0 | 0.00 | 0.00 | 0.00 | 45 | 1017.2 |
| 20260504002508 | 16 | 248 | 0.0 | 0.0 | 0.00 | 0.00 | 0.00 | 45 | 1017.1 |
| 20260504002014 | 17 | 248 | 0.0 | 0.0 | 0.00 | 0.00 | 0.00 | 43 | 1017.0 |
| 20260504001520 | 17 | 248 | 0.0 | 0.0 | 0.00 | 0.00 | 0.00 | 43 | 1017.0 |
| 20260504001008 | 17 | 252 | 0.0 | 0.0 | 0.00 | 0.00 | 0.00 | 43 | 1016.9 |
| 20260504000507 | 17 | 252 | 0.0 | 0.0 | 0.00 | 0.00 | 0.00 | 43 | 1017.0 |
| 20260504000023 | 17 | 252 | 0.0 | 0.0 | 0.00 | 0.00 | 0.00 | 42 | 1016.9 |
| 20260503235509 | 17 | 252 | 0.0 | 0.0 | 0.00 | 0.00 | 0.00 | 41 | 1016.9 |
| 20260503235008 | 17 | 252 | 0.0 | 0.0 | 0.00 | 0.00 | 0.00 | 42 | 1016.8 |
| 20260503234525 | 18 | 252 | 0.0 | 0.0 | 0.00 | 0.00 | 0.00 | 40 | 1016.8 |
| 20260503234009 | 18 | 252 | 0.0 | 0.0 | 0.00 | 0.00 | 0.00 | 40 | 1016.8 |
| 20260503233506 | 18 | 254 | 0.0 | 0.0 | 0.00 | 0.00 | 0.00 | 39 | 1016.8 |
| 20260503233013 | 18 | 255 | 0.0 | 0.0 | 0.00 | 0.00 | 0.00 | 39 | 1016.7 |
| 20260503232507 | 18 | 255 | 0.0 | 0.0 | 0.00 | 0.00 | 0.00 | 38 | 1016.8 |
| 20260503232005 | 18 | 258 | 0.0 | 1.6 | 0.00 | 0.00 | 0.00 | 38 | 1016.9 |
| 20260503231518 | 18 | 258 | 0.0 | 1.6 | 0.00 | 0.00 | 0.00 | 38 | 1016.9 |
| 20260503231007 | 18 | 256 | 0.0 | 1.6 | 0.00 | 0.00 | 0.00 | 37 | 1016.9 |
| 20260503230510 | 18 | 256 | 0.0 | 1.6 | 0.00 | 0.00 | 0.00 | 38 | 1016.9 |
| 20260503230004 | 18 | 260 | 0.0 | 6.4 | 0.00 | 0.00 | 0.00 | 39 | 1017.0 |
| 20260503225505 | 18 | 279 | 0.0 | 9.7 | 0.00 | 0.00 | 0.00 | 38 | 1017.0 |
| 20260503225005 | 18 | 357 | 1.6 | 9.7 | 0.00 | 0.00 | 0.00 | 37 | 1017.0 |
| 20260503224512 | 18 | 290 | 0.0 | 1.6 | 0.00 | 0.00 | 0.00 | 38 | 1017.1 |
| 20260503224003 | 19 | 300 | 0.0 | 1.6 | 0.00 | 0.00 | 0.00 | 38 | 1017.1 |
| 20260503223508 | 19 | 3 | 0.0 | 1.6 | 0.00 | 0.00 | 0.00 | 36 | 1017.0 |
| 20260503223014 | 19 | 256 | 0.0 | 1.6 | 0.00 | 0.00 | 0.00 | 34 | 1017.0 |
| 20260503222507 | 19 | 250 | 0.0 | 6.4 | 0.00 | 0.00 | 0.00 | 34 | 1017.0 |
| 20260503222009 | 19 | 302 | 0.0 | 6.4 | 0.00 | 0.00 | 0.00 | 36 | 1017.1 |
| 20260503221516 | 19 | 261 | 0.0 | 3.2 | 0.00 | 0.00 | 0.00 | 33 | 1017.0 |
| 20260503221011 | 19 | 295 | 0.0 | 1.6 | 0.00 | 0.00 | 0.00 | 33 | 1017.0 |
| 20260503220512 | 19 | 239 | 0.0 | 1.6 | 0.00 | 0.00 | 0.00 | 33 | 1017.0 |
| 20260503220026 | 19 | 248 | 0.0 | 1.6 | 0.00 | 0.00 | 0.00 | 32 | 1017.0 |
| 20260503215507 | 19 | 288 | 0.0 | 3.2 | 0.00 | 0.00 | 0.00 | 32 | 1017.0 |
| 20260503215012 | 19 | 164 | 0.0 | 3.2 | 0.00 | 0.00 | 0.00 | 33 | 1017.1 |
| 20260503214526 | 19 | 288 | 0.0 | 3.2 | 0.00 | 0.00 | 0.00 | 34 | 1017.0 |
| 20260503214003 | 20 | 313 | 0.0 | 3.2 | 0.00 | 0.00 | 0.00 | 34 | 1017.1 |
| 20260503213506 | 20 | 113 | 0.0 | 1.6 | 0.00 | 0.00 | 0.00 | 34 | 1017.1 |
| 20260503213006 | 20 | 234 | 0.0 | 4.8 | 0.00 | 0.00 | 0.00 | 36 | 1017.2 |
| 20260503212507 | 19 | 195 | 0.0 | 4.8 | 0.00 | 0.00 | 0.00 | 34 | 1017.2 |
| 20260503212005 | 19 | 341 | 0.0 | 6.4 | 0.00 | 0.00 | 0.00 | 35 | 1017.1 |
| 20260503211514 | 20 | 280 | 0.0 | 6.4 | 0.00 | 0.00 | 0.00 | 34 | 1017.1 |
| 20260503211006 | 19 | 148 | 0.0 | 11.3 | 0.00 | 0.00 | 0.00 | 34 | 1017.1 |
| 20260503210510 | 19 | 280 | 0.0 | 11.3 | 0.00 | 0.00 | 0.00 | 33 | 1017.2 |
| 20260503210020 | 19 | 353 | 0.0 | 4.8 | 0.00 | 0.00 | 0.00 | 34 | 1017.3 |
| 20260503205507 | 19 | 158 | 0.0 | 3.2 | 0.00 | 0.00 | 0.00 | 34 | 1017.3 |
| 20260503205010 | 19 | 222 | 0.0 | 1.6 | 0.00 | 0.00 | 0.00 | 33 | 1017.4 |
| 20260503204524 | 19 | 146 | 0.0 | 3.2 | 0.00 | 0.00 | 0.00 | 32 | 1017.5 |
| 20260503204007 | 19 | 139 | 0.0 | 3.2 | 0.00 | 0.00 | 0.00 | 34 | 1017.6 |
| 20260503203507 | 19 | 211 | 0.0 | 4.8 | 0.00 | 0.00 | 0.00 | 35 | 1017.6 |
| 20260503203026 | 19 | 211 | 0.0 | 4.8 | 0.00 | 0.00 | 0.00 | 34 | 1017.6 |
| 20260503202503 | 19 | 138 | 0.0 | 3.2 | 0.00 | 0.00 | 0.00 | 37 | 1017.7 |
| 20260503202008 | 19 | 206 | 0.0 | 8.0 | 0.00 | 0.00 | 0.00 | 38 | 1017.9 |
| 20260503201513 | 19 | 194 | 0.0 | 8.0 | 0.00 | 0.00 | 0.00 | 38 | 1017.9 |
| 20260503201007 | 19 | 229 | 1.6 | 8.0 | 0.00 | 0.00 | 0.00 | 36 | 1018.0 |
| 20260503200507 | 19 | 312 | 0.0 | 8.0 | 0.00 | 0.00 | 0.00 | 39 | 1018.1 |
| 20260503200017 | 19 | 288 | 1.6 | 8.0 | 0.00 | 0.00 | 0.00 | 37 | 1018.1 |
| 20260503195509 | 19 | 283 | 0.0 | 4.8 | 0.00 | 0.00 | 0.00 | 39 | 1018.2 |
| 20260503195010 | 20 | 307 | 1.6 | 4.8 | 0.00 | 0.00 | 0.00 | 38 | 1018.2 |
| 20260503194521 | 20 | 212 | 0.0 | 6.4 | 0.00 | 0.00 | 0.00 | 39 | 1018.3 |
| 20260503194007 | 20 | 153 | 0.0 | 6.4 | 0.00 | 0.00 | 0.00 | 38 | 1018.4 |
| 20260503193507 | 20 | 110 | 0.0 | 4.8 | 0.00 | 0.00 | 0.00 | 37 | 1018.5 |
| 20260503193023 | 20 | 264 | 0.0 | 4.8 | 0.00 | 0.00 | 0.00 | 37 | 1018.5 |
| 20260503192507 | 20 | 117 | 0.0 | 11.3 | 0.00 | 0.00 | 0.00 | 36 | 1018.6 |
| 20260503192014 | 20 | 221 | 0.0 | 11.3 | 0.00 | 0.00 | 0.00 | 34 | 1018.7 |
| 20260503191535 | 20 | 360 | 0.0 | 4.8 | 0.00 | 0.00 | 0.00 | 33 | 1018.8 |
| 20260503191011 | 20 | 20 | 0.0 | 3.2 | 0.00 | 0.00 | 0.00 | 34 | 1018.8 |
| 20260503190506 | 20 | 280 | 0.0 | 1.6 | 0.00 | 0.00 | 0.00 | 35 | 1019.0 |
| 20260503190012 | 20 | 262 | 0.0 | 3.2 | 0.00 | 0.00 | 0.00 | 35 | 1019.1 |
| 20260503185504 | 19 | 305 | 0.0 | 4.8 | 0.00 | 0.00 | 0.00 | 37 | 1019.0 |
| 20260503185008 | 19 | 311 | 3.2 | 4.8 | 0.00 | 0.00 | 0.00 | 36 | 1019.1 |
| 20260503184519 | 19 | 325 | 0.0 | 4.8 | 0.00 | 0.00 | 0.00 | 36 | 1019.1 |
| 20260503184007 | 19 | 293 | 0.0 | 3.2 | 0.00 | 0.00 | 0.00 | 37 | 1019.2 |
| 20260503183511 | 19 | 293 | 0.0 | 6.4 | 0.00 | 0.00 | 0.00 | 36 | 1019.3 |
| 20260503183021 | 19 | 345 | 1.6 | 6.4 | 0.00 | 0.00 | 0.00 | 37 | 1019.3 |
| 20260503182507 | 19 | 286 | 0.0 | 4.8 | 0.00 | 0.00 | 0.00 | 36 | 1019.4 |
| 20260503182010 | 19 | 262 | 0.0 | 4.8 | 0.00 | 0.00 | 0.00 | 35 | 1019.5 |
| 20260503181526 | 19 | 49 | 0.0 | 12.9 | 0.00 | 0.00 | 0.00 | 40 | 1019.5 |
| 20260503181011 | 19 | 289 | 1.6 | 12.9 | 0.00 | 0.00 | 0.00 | 38 | 1019.6 |
| 20260503180515 | 20 | 193 | 0.0 | 4.8 | 0.00 | 0.00 | 0.00 | 36 | 1019.6 |
| 20260503180037 | 20 | 345 | 0.0 | 4.8 | 0.00 | 0.00 | 0.00 | 38 | 1019.5 |
| 20260503175510 | 20 | 152 | 0.0 | 3.2 | 0.00 | 0.00 | 0.00 | 37 | 1019.5 |
| 20260503175007 | 19 | 196 | 0.0 | 3.2 | 0.00 | 0.00 | 0.00 | 39 | 1019.6 |
| 20260503174513 | 19 | 206 | 0.0 | 3.2 | 0.00 | 0.00 | 0.00 | 40 | 1019.7 |
| 20260503174010 | 18 | 219 | 0.0 | 3.2 | 0.00 | 0.00 | 0.00 | 38 | 1019.7 |
| 20260503173512 | 18 | 281 | 0.0 | 3.2 | 0.00 | 0.00 | 0.00 | 38 | 1019.7 |
| 20260503173020 | 18 | 250 | 0.0 | 3.2 | 0.00 | 0.00 | 0.00 | 37 | 1019.7 |
| 20260503172510 | 18 | 131 | 0.0 | 8.0 | 0.00 | 0.00 | 0.00 | 38 | 1019.8 |
| 20260503172010 | 18 | 204 | 0.0 | 8.0 | 0.00 | 0.00 | 0.00 | 43 | 1019.9 |
| 20260503171526 | 18 | 347 | 0.0 | 1.6 | 0.00 | 0.00 | 0.00 | 41 | 1019.9 |
| 20260503171009 | 18 | 304 | 0.0 | 6.4 | 0.00 | 0.00 | 0.00 | 42 | 1020.1 |
| 20260503170508 | 17 | 304 | 3.2 | 6.4 | 0.00 | 0.00 | 0.00 | 38 | 1020.2 |